Four Marks, United Kingdom
Current Conditions -  °F | °C
As of 6:50 PM on Friday 24 Oct 2014 (Local Time) from EGVO Reporting Station
Broken Clouds Broken Clouds  
Wind Chill: 59°   Ceiling: 1700
Heat Index: 59°   Visibility: 6mi
Dew Point: 55°   Wind: 12mph
Humidity: 88%   Direction: 210°SSW
Pressure: 29.91"   Gusts: NA
Location:  51.11°N, 1.05°W
Report Text: EGVO 241750Z 21010KT 9999 BKN017 15/13 Q1013 WHT
Loading
Personal Weather Stations






























Interactive Weather Map
Tropical Storm Tracking
New forecast layout! Learn more

10-Day Weather Forecast

Advertisements
Track Severe Weather on mobile